57°F
Crown Heights Area, Poughkeepsie, NY, USA
UpdatedApr-26-2017 13:44 
 

Nearby METAR Reports

 

KPOU - Poughkeepsie, New York, USA
Distance from station: ENE 2mi, 4km
Updated: Wed, 26-Apr-2017 12:53pm EDT
Overcast
Overcast
 Wind from NNE
Wind: NNE 7 mph , 11 km/h
Temperature: 57°F , 14°C
Dew Point: 55°F , 13°C
Humidity: 94%
Barometer: 29.79 inHg , 1008.8 hPa
Clouds: Overcast
Visibility: 7 miles , 11 km
Cloud details: Overcast 1200 ft
2017/04/26 16:53 KPOU 261653Z 02006KT 7SM OVC012 14/13 A2979 RMK AO2 SLP083 T01440128
KSWF - Newburgh/Stewart, New York, USA
Distance from station: SW 12mi, 19km
Updated: Wed, 26-Apr-2017 1:45pm EDT
Overcast
Overcast
 Wind from E
Wind: E 9 mph , 15 km/h
Temperature: 59°F , 15°C
Dew Point: 57°F , 14°C
Humidity: 94%
Barometer: 29.81 inHg , 1009.5 hPa
Clouds: Overcast
Visibility: 7 miles , 11 km
Cloud details: Overcast 1000 ft
2017/04/26 17:45 KSWF 261745Z 09008KT 7SM OVC010 15/14 A2981
 
KMGJ - Montgomery, New York, USA
Distance from station: WSW 19mi, 31km
Updated: Wed, 26-Apr-2017 12:54pm EDT
Overcast
Overcast
 Wind from N
Wind: N 10 mph , 17 km/h
Temperature: 61°F , 16°C
Dew Point: 54°F , 12°C
Humidity: 77%
Barometer: 29.79 inHg , 1008.8 hPa
Clouds: Overcast
Visibility: 10 miles , 16 km
Cloud details: Overcast 1300 ft
2017/04/26 16:54 KMGJ 261654Z AUTO 36009KT 10SM OVC013 16/12 A2979 RMK AO2 SLP087 T01560122 TSNO
KDXR - Danbury, Connecticut, USA
Distance from station: SE 29mi, 46km
Updated: Wed, 26-Apr-2017 12:53pm EDT
Overcast
Overcast
 Wind from ENE
Wind: ENE 10 mph , 17 km/h
Temperature: 55°F , 13°C
Dew Point: 55°F , 13°C
Humidity: 100%
Barometer: 29.80 inHg , 1009.1 hPa
Clouds: Overcast
Visibility: 10 miles , 16 km
Cloud details: Overcast 800 ft
2017/04/26 16:53 KDXR 261653Z 06009KT 10SM OVC008 13/13 A2980 RMK AO2 SLP090 T01330128
 
KHPN - White Plains, New York, USA
Distance from station: SSE 40mi, 64km
Updated: Wed, 26-Apr-2017 12:56pm EDT
Overcast
Overcast
 Wind from varies
Wind: varies 5 mph , 7 km/h
Temperature: 61°F , 16°C
Dew Point: 55°F , 13°C
Humidity: 83%
Barometer: 29.77 inHg , 1008.1 hPa
Clouds: Overcast
Visibility: 10 miles , 16 km
Cloud details: Mostly cloudy 800 ft
Overcast 1200 ft
2017/04/26 16:56 KHPN 261656Z VRB04KT 10SM BKN008 OVC012 16/13 A2977 RMK AO2 SLP079 T01560128
KOXC - Oxford/Waterbury, Connecticut, USA
Distance from station: ESE 42mi, 68km
Updated: Wed, 26-Apr-2017 12:50pm EDT

 
Visibility: 11 miles
2017/04/26 16:50 KOXC 261650Z 07009G14 5M BR OVC005 13/11 A2983
 
KMSV - Monticello, New York, USA
Distance from station: W 45mi, 72km
Updated: Wed, 26-Apr-2017 1:35pm EDT
Mostly cloudy
Mostly cloudy
 Wind from E
Wind: E 5 mph , 7 km/h
Temperature: 57°F , 14°C
Dew Point: 55°F , 13°C
Humidity: 94%
Barometer: 29.81 inHg , 1009.5 hPa
Clouds: Mostly cloudy
Visibility: 10 miles , 16 km
Cloud details: Partly cloudy 1000 ft
Mostly cloudy 4800 ft
2017/04/26 17:35 KMSV 261735Z AUTO 09004KT 10SM SCT010 BKN048 14/13 A2981 RMK AO1
KFWN - Sussex, New Jersey, USA
Distance from station: SW 47mi, 75km
Updated: Wed, 26-Apr-2017 12:53pm EDT
Overcast
Overcast
 Wind from NE
Wind: NE 5 mph , 7 km/h
Temperature: 59°F , 15°C
Dew Point: 55°F , 13°C
Humidity: 88%
Barometer: 29.80 inHg , 1009.1 hPa
Clouds: Overcast
Visibility: 10 miles , 16 km
Cloud details: Overcast 1100 ft
2017/04/26 16:53 KFWN 261653Z AUTO 05004KT 10SM OVC011 15/13 A2980 RMK AO2 SLP092 T01500128